Flight Track Log - Related Links

Times and Time Zones

All times are in EDT time to prevent confusion due to time zone crossing. See the AWE801 flight status page for this flight to view local times or setup timezone preferences in your user account.

Time Position Orientation Groundspeed Altitude Reporting Facility
EDT Latitude Longitude Course Direction KTS MPH feet Rate Location/Type
Mon 09:10:00 PM -22.4868 -43.4213 333° Northwest  Level FlightAware Approximate
Mon 09:11:00 PM -22.3794 -43.4804 333° Northwest  Level FlightAware Approximate
Mon 09:12:00 PM -22.2719 -43.5393 333° Northwest  Level FlightAware Approximate
Mon 09:13:00 PM -22.1645 -43.5981 333° Northwest  Level FlightAware Approximate
Mon 09:14:00 PM -22.0570 -43.6569 333° Northwest  Level FlightAware Approximate
Mon 09:15:00 PM -21.9495 -43.7156 333° Northwest  Level FlightAware Approximate
Mon 09:16:00 PM -21.8420 -43.7742 333° Northwest  Level FlightAware Approximate
Mon 09:17:00 PM -21.7344 -43.8327 333° Northwest  Level FlightAware Approximate
Mon 09:18:00 PM -21.6269 -43.8911 333° Northwest  Level FlightAware Approximate
Mon 09:19:00 PM -21.5193 -43.9494 333° Northwest  Level FlightAware Approximate
Mon 09:20:00 PM -21.4117 -44.0076 333° Northwest  Level FlightAware Approximate
Mon 09:21:00 PM -21.3075 -44.0646 332° Northwest  Level FlightAware Approximate
Mon 09:22:00 PM -21.2009 -44.1248 332° Northwest  Level FlightAware Approximate
Mon 09:23:00 PM -21.0943 -44.1850 332° Northwest  Level FlightAware Approximate
Mon 09:24:00 PM -20.9876 -44.2450 332° Northwest  Level FlightAware Approximate
Mon 09:25:00 PM -20.8810 -44.3050 332° Northwest  Level FlightAware Approximate
Mon 09:26:00 PM -20.7743 -44.3649 332° Northwest  Level FlightAware Approximate
Mon 09:27:00 PM -20.6676 -44.4247 332° Northwest  Level FlightAware Approximate
Mon 09:28:00 PM -20.5608 -44.4844 332° Northwest  Level FlightAware Approximate
Mon 09:29:00 PM -20.4541 -44.5440 332° Northwest  Level FlightAware Approximate
Mon 09:30:00 PM -20.3473 -44.6035 332° Northwest  Level FlightAware Approximate
Mon 09:31:00 PM -20.2405 -44.6630 332° Northwest  Level FlightAware Approximate
Mon 09:32:00 PM -20.1337 -44.7224 332° Northwest  Level FlightAware Approximate
Mon 09:33:00 PM -20.0269 -44.7817 332° Northwest  Level FlightAware Approximate
Mon 09:34:00 PM -19.9200 -44.8409 332° Northwest  Level FlightAware Approximate
Mon 09:35:00 PM -19.8132 -44.9001 332° Northwest  Level FlightAware Approximate
Mon 09:36:00 PM -19.7063 -44.9591 333° Northwest  Level FlightAware Approximate
Mon 09:37:00 PM -19.5994 -45.0181 333° Northwest  Level FlightAware Approximate
Mon 09:38:00 PM -19.4924 -45.0770 333° Northwest  Level FlightAware Approximate
Mon 09:39:00 PM -19.3855 -45.1358 333° Northwest  Level FlightAware Approximate
Mon 09:40:00 PM -19.2785 -45.1946 333° Northwest  Level FlightAware Approximate
Mon 09:41:00 PM -19.1715 -45.2532 333° Northwest  Level FlightAware Approximate
Mon 09:42:00 PM -19.0645 -45.3118 333° Northwest  Level FlightAware Approximate
Mon 09:43:00 PM -18.9575 -45.3704 333° Northwest  Level FlightAware Approximate
Mon 09:44:00 PM -18.8505 -45.4288 333° Northwest  Level FlightAware Approximate
Mon 09:45:00 PM -18.7434 -45.4872 333° Northwest  Level FlightAware Approximate
Mon 09:46:00 PM -18.6363 -45.5455 333° Northwest  Level FlightAware Approximate
Mon 09:47:00 PM -18.5292 -45.6037 333° Northwest  Level FlightAware Approximate
Mon 09:48:00 PM -18.4221 -45.6618 333° Northwest  Level FlightAware Approximate
Mon 09:49:00 PM -18.3150 -45.7199 333° Northwest  Level FlightAware Approximate
Mon 09:50:00 PM -18.2078 -45.7779 333° Northwest  Level FlightAware Approximate
Mon 09:51:00 PM -18.1006 -45.8359 333° Northwest  Level FlightAware Approximate
Mon 09:52:00 PM -17.9935 -45.8937 333° Northwest  Level FlightAware Approximate
Mon 09:53:00 PM -17.8862 -45.9515 333° Northwest  Level FlightAware Approximate
Mon 09:54:00 PM -17.7790 -46.0092 333° Northwest  Level FlightAware Approximate
Mon 09:55:00 PM -17.6718 -46.0669 333° Northwest  Level FlightAware Approximate
Mon 09:56:00 PM -17.5645 -46.1245 333° Northwest  Level FlightAware Approximate
Mon 09:57:00 PM -17.4573 -46.1820 333° Northwest  Level FlightAware Approximate
Mon 09:58:00 PM -17.3500 -46.2394 333° Northwest  Level FlightAware Approximate
Mon 09:59:00 PM -17.2427 -46.2968 333° Northwest  Level FlightAware Approximate
Mon 10:00:00 PM -17.1354 -46.3541 333° Northwest  Level FlightAware Approximate
Mon 10:01:00 PM -17.0280 -46.4114 333° Northwest  Level FlightAware Approximate
Mon 10:02:00 PM -16.9207 -46.4686 333° Northwest  Level FlightAware Approximate
Mon 10:03:00 PM -16.8133 -46.5257 333° Northwest  Level FlightAware Approximate
Mon 10:04:00 PM -16.7059 -46.5827 333° Northwest  Level FlightAware Approximate
Mon 10:05:00 PM -16.5985 -46.6397 333° Northwest  Level FlightAware Approximate
Mon 10:06:00 PM -16.4911 -46.6967 333° Northwest  Level FlightAware Approximate
Mon 10:07:00 PM -16.3837 -46.7535 333° Northwest  Level FlightAware Approximate
Mon 10:08:00 PM -16.2763 -46.8103 333° Northwest  Level FlightAware Approximate
Mon 10:09:00 PM -16.1688 -46.8671 333° Northwest  Level FlightAware Approximate
Mon 10:10:00 PM -16.0613 -46.9238 333° Northwest  Level FlightAware Approximate
Mon 10:11:00 PM -15.9538 -46.9804 333° Northwest  Level FlightAware Approximate
Mon 10:12:00 PM -15.8463 -47.0369 333° Northwest  Level FlightAware Approximate
Mon 10:13:00 PM -15.7388 -47.0934 333° Northwest  Level FlightAware Approximate
Mon 10:14:00 PM -15.6313 -47.1499 333° Northwest  Level FlightAware Approximate
Mon 10:15:00 PM -15.5237 -47.2062 333° Northwest  Level FlightAware Approximate
Mon 10:16:00 PM -15.4162 -47.2626 333° Northwest  Level FlightAware Approximate
Mon 10:17:00 PM -15.3086 -47.3188 333° Northwest  Level FlightAware Approximate
Mon 10:18:00 PM -15.2010 -47.3750 333° Northwest  Level FlightAware Approximate
Mon 10:19:00 PM -15.0934 -47.4312 333° Northwest  Level FlightAware Approximate
Mon 10:20:00 PM -14.9858 -47.4873 333° Northwest  Level FlightAware Approximate
Mon 10:21:00 PM -14.8781 -47.5433 333° Northwest  Level FlightAware Approximate
Mon 10:22:00 PM -14.7705 -47.5993 333° Northwest  Level FlightAware Approximate
Mon 10:23:00 PM -14.6628 -47.6552 333° Northwest  Level FlightAware Approximate
Mon 10:24:00 PM -14.5552 -47.7110 333° Northwest  Level FlightAware Approximate
Mon 10:25:00 PM -14.4475 -47.7668 333° Northwest  Level FlightAware Approximate
Mon 10:26:00 PM -14.3398 -47.8226 333° Northwest  Level FlightAware Approximate
Mon 10:27:00 PM -14.2321 -47.8783 333° Northwest  Level FlightAware Approximate
Mon 10:28:00 PM -14.1243 -47.9340 333° Northwest  Level FlightAware Approximate
Mon 10:29:00 PM -14.0166 -47.9896 333° Northwest  Level FlightAware Approximate
Mon 10:30:00 PM -13.9089 -48.0451 333° Northwest  Level FlightAware Approximate
Mon 10:31:00 PM -13.8011 -48.1006 333° Northwest  Level FlightAware Approximate
Mon 10:32:00 PM -13.6933 -48.1560 333° Northwest  Level FlightAware Approximate
Mon 10:33:00 PM -13.5855 -48.2114 333° Northwest  Level FlightAware Approximate
Mon 10:34:00 PM -13.4777 -48.2668 333° Northwest  Level FlightAware Approximate
Mon 10:35:00 PM -13.3699 -48.3220 333° Northwest  Level FlightAware Approximate
Mon 10:36:00 PM -13.2621 -48.3773 333° Northwest  Level FlightAware Approximate
Mon 10:37:00 PM -13.1543 -48.4325 334° Northwest  Level FlightAware Approximate
Mon 10:38:00 PM -13.0464 -48.4876 334° Northwest  Level FlightAware Approximate
Mon 10:39:00 PM -12.9386 -48.5427 334° Northwest  Level FlightAware Approximate
Mon 10:40:00 PM -12.8307 -48.5978 334° Northwest  Level FlightAware Approximate
Mon 10:41:00 PM -12.7228 -48.6528 334° Northwest  Level FlightAware Approximate
Mon 10:42:00 PM -12.6149 -48.7077 334° Northwest  Level FlightAware Approximate
Mon 10:43:00 PM -12.5070 -48.7626 334° Northwest  Level FlightAware Approximate
Mon 10:44:00 PM -12.3991 -48.8175 334° Northwest  Level FlightAware Approximate
Mon 10:45:00 PM -12.2912 -48.8723 334° Northwest  Level FlightAware Approximate
Mon 10:46:00 PM -12.1832 -48.9271 334° Northwest  Level FlightAware Approximate
Mon 10:47:00 PM -12.0753 -48.9818 334° Northwest  Level FlightAware Approximate
Mon 10:48:00 PM -11.9673 -49.0365 334° Northwest  Level FlightAware Approximate
Mon 10:49:00 PM -11.8594 -49.0911 334° Northwest  Level FlightAware Approximate
Mon 10:50:00 PM -11.7514 -49.1457 334° Northwest  Level FlightAware Approximate
Mon 10:51:00 PM -11.6434 -49.2003 334° Northwest  Level FlightAware Approximate
Mon 10:52:00 PM -11.5354 -49.2548 334° Northwest  Level FlightAware Approximate
Mon 10:53:00 PM -11.4274 -49.3093 334° Northwest  Level FlightAware Approximate
Mon 10:54:00 PM -11.3194 -49.3637 334° Northwest  Level FlightAware Approximate
Mon 10:55:00 PM -11.2113 -49.4181 334° Northwest  Level FlightAware Approximate
Mon 10:56:00 PM -11.1033 -49.4724 334° Northwest  Level FlightAware Approximate
Mon 10:57:00 PM -10.9952 -49.5267 334° Northwest  Level FlightAware Approximate
Mon 10:58:00 PM -10.8872 -49.5810 334° Northwest  Level FlightAware Approximate
Mon 10:59:00 PM -10.7791 -49.6352 334° Northwest  Level FlightAware Approximate
Mon 11:00:00 PM -10.6710 -49.6894 334° Northwest  Level FlightAware Approximate
Mon 11:01:00 PM -10.5629 -49.7436 334° Northwest  Level FlightAware Approximate
Mon 11:02:00 PM -10.4548 -49.7977 334° Northwest  Level FlightAware Approximate
Mon 11:03:00 PM -10.3467 -49.8518 334° Northwest  Level FlightAware Approximate
Mon 11:04:00 PM -10.2386 -49.9058 334° Northwest  Level FlightAware Approximate
Mon 11:05:00 PM -10.1305 -49.9598 334° Northwest  Level FlightAware Approximate
Mon 11:06:00 PM -10.0224 -50.0138 334° Northwest  Level FlightAware Approximate
Mon 11:07:00 PM -9.9142 -50.0677 334° Northwest  Level FlightAware Approximate
Mon 11:08:00 PM -9.8061 -50.1216 334° Northwest  Level FlightAware Approximate
Mon 11:09:00 PM -9.6979 -50.1754 334° Northwest  Level FlightAware Approximate
Mon 11:10:00 PM -9.5897 -50.2293 334° Northwest  Level FlightAware Approximate
Mon 11:11:00 PM -9.4816 -50.2831 334° Northwest  Level FlightAware Approximate
Mon 11:12:00 PM -9.3734 -50.3368 334° Northwest  Level FlightAware Approximate
Mon 11:13:00 PM -9.2652 -50.3905 334° Northwest  Level FlightAware Approximate
Mon 11:14:00 PM -9.1570 -50.4442 334° Northwest  Level FlightAware Approximate
Mon 11:15:00 PM -9.0488 -50.4979 334° Northwest  Level FlightAware Approximate
Mon 11:16:00 PM -8.9405 -50.5515 334° Northwest  Level FlightAware Approximate
Mon 11:17:00 PM -8.8323 -50.6051 334° Northwest  Level FlightAware Approximate
Mon 11:18:00 PM -8.7241 -50.6586 334° Northwest  Level FlightAware Approximate
Mon 11:19:00 PM -8.6159 -50.7122 334° Northwest  Level FlightAware Approximate
Mon 11:20:00 PM -8.5076 -50.7657 334° Northwest  Level FlightAware Approximate
Mon 11:21:00 PM -8.3994 -50.8191 334° Northwest  Level FlightAware Approximate
Mon 11:22:00 PM -8.2911 -50.8726 334° Northwest  Level FlightAware Approximate
Mon 11:23:00 PM -8.1828 -50.9260 334° Northwest  Level FlightAware Approximate
Mon 11:24:00 PM -8.0746 -50.9794 334° Northwest  Level FlightAware Approximate
Mon 11:25:00 PM -7.9663 -51.0327 334° Northwest  Level FlightAware Approximate
Mon 11:26:00 PM -7.8580 -51.0860 334° Northwest  Level FlightAware Approximate
Mon 11:27:00 PM -7.7497 -51.1393 334° Northwest  Level FlightAware Approximate
Mon 11:28:00 PM -7.6414 -51.1926 334° Northwest  Level FlightAware Approximate
Mon 11:29:00 PM -7.5331 -51.2458 334° Northwest  Level FlightAware Approximate
Mon 11:30:00 PM -7.4248 -51.2990 334° Northwest  Level FlightAware Approximate
Mon 11:31:00 PM -7.3165 -51.3522 334° Northwest  Level FlightAware Approximate
Mon 11:32:00 PM -7.2081 -51.4054 334° Northwest  Level FlightAware Approximate
Mon 11:33:00 PM -7.0998 -51.4585 334° Northwest  Level FlightAware Approximate
Mon 11:34:00 PM -6.9914 -51.5116 334° Northwest  Level FlightAware Approximate
Mon 11:35:00 PM -6.8831 -51.5647 334° Northwest  Level FlightAware Approximate
Mon 11:36:00 PM -6.7748 -51.6178 334° Northwest  Level FlightAware Approximate
Mon 11:37:00 PM -6.6664 -51.6708 334° Northwest  Level FlightAware Approximate
Mon 11:38:00 PM -6.5580 -51.7238 334° Northwest  Level FlightAware Approximate
Mon 11:39:00 PM -6.4497 -51.7768 334° Northwest  Level FlightAware Approximate
Mon 11:40:00 PM -6.3413 -51.8298 334° Northwest  Level FlightAware Approximate
Mon 11:41:00 PM -6.2329 -51.8827 334° Northwest  Level FlightAware Approximate
Mon 11:42:00 PM -6.1245 -51.9356 334° Northwest  Level FlightAware Approximate
Mon 11:43:00 PM -6.0161 -51.9885 334° Northwest  Level FlightAware Approximate
Mon 11:44:00 PM -5.9078 -52.0414 334° Northwest  Level FlightAware Approximate
Mon 11:45:00 PM -5.7993 -52.0943 334° Northwest  Level FlightAware Approximate
Mon 11:46:00 PM -5.6909 -52.1471 334° Northwest  Level FlightAware Approximate
Mon 11:47:00 PM -5.5825 -52.2000 334° Northwest  Level FlightAware Approximate
Mon 11:48:00 PM -5.4741 -52.2528 334° Northwest  Level FlightAware Approximate
Mon 11:49:00 PM -5.3657 -52.3055 334° Northwest  Level FlightAware Approximate
Mon 11:50:00 PM -5.2573 -52.3583 334° Northwest  Level FlightAware Approximate
Mon 11:51:00 PM -5.1489 -52.4110 334° Northwest  Level FlightAware Approximate
Mon 11:52:00 PM -5.0404 -52.4638 334° Northwest  Level FlightAware Approximate
Mon 11:53:00 PM -4.9320 -52.5165 334° Northwest  Level FlightAware Approximate
Mon 11:54:00 PM -4.8236 -52.5692 334° Northwest  Level FlightAware Approximate
Mon 11:55:00 PM -4.7151 -52.6218 334° Northwest  Level FlightAware Approximate
Mon 11:56:00 PM -4.6067 -52.6745 334° Northwest  Level FlightAware Approximate
Mon 11:57:00 PM -4.4982 -52.7271 334° Northwest  Level FlightAware Approximate
Mon 11:58:00 PM -4.3898 -52.7798 334° Northwest  Level FlightAware Approximate
Mon 11:59:00 PM -4.2813 -52.8324 334° Northwest  Level FlightAware Approximate
Tue 12:00:00 AM -4.1728 -52.8850 334° Northwest  Level FlightAware Approximate
Tue 12:01:00 AM -4.0644 -52.9375 334° Northwest  Level FlightAware Approximate
Tue 12:02:00 AM -3.9559 -52.9901 334° Northwest  Level FlightAware Approximate
Tue 12:03:00 AM -3.8474 -53.0427 334° Northwest  Level FlightAware Approximate
Tue 12:04:00 AM -3.7389 -53.0952 334° Northwest  Level FlightAware Approximate
Tue 12:05:00 AM -3.6305 -53.1477 334° Northwest  Level FlightAware Approximate
Tue 12:06:00 AM -3.5220 -53.2002 334° Northwest  Level FlightAware Approximate
Tue 12:07:00 AM -3.4135 -53.2528 334° Northwest  Level FlightAware Approximate
Tue 12:08:00 AM -3.3050 -53.3052 334° Northwest  Level FlightAware Approximate
Tue 12:09:00 AM -3.1965 -53.3577 334° Northwest  Level FlightAware Approximate
Tue 12:10:00 AM -3.0880 -53.4102 334° Northwest  Level FlightAware Approximate
Tue 12:11:00 AM -2.9795 -53.4627 334° Northwest  Level FlightAware Approximate
Tue 12:12:00 AM -2.8710 -53.5151 334° Northwest  Level FlightAware Approximate
Tue 12:13:00 AM -2.7625 -53.5675 334° Northwest  Level FlightAware Approximate
Tue 12:14:00 AM -2.6540 -53.6200 334° Northwest  Level FlightAware Approximate
Tue 12:15:00 AM -2.5455 -53.6724 334° Northwest  Level FlightAware Approximate
Tue 12:16:00 AM -2.4370 -53.7248 334° Northwest  Level FlightAware Approximate
Tue 12:17:00 AM -2.3285 -53.7772 334° Northwest  Level FlightAware Approximate
Tue 12:18:00 AM -2.2200 -53.8296 334° Northwest  Level FlightAware Approximate
Tue 12:19:00 AM -2.1115 -53.8820 334° Northwest  Level FlightAware Approximate
Tue 12:20:00 AM -2.0029 -53.9344 334° Northwest  Level FlightAware Approximate
Tue 12:21:00 AM -1.8944 -53.9867 334° Northwest  Level FlightAware Approximate
Tue 12:22:00 AM -1.7859 -54.0391 334° Northwest  Level FlightAware Approximate
Tue 12:23:00 AM -1.6774 -54.0914 334° Northwest  Level FlightAware Approximate
Tue 12:24:00 AM -1.5689 -54.1438 334° Northwest  Level FlightAware Approximate
Tue 12:25:00 AM -1.4604 -54.1962 334° Northwest  Level FlightAware Approximate
Tue 12:26:00 AM -1.3518 -54.2485 334° Northwest  Level FlightAware Approximate
Tue 12:27:00 AM -1.2433 -54.3008 334° Northwest  Level FlightAware Approximate
Tue 12:28:00 AM -1.1348 -54.3532 334° Northwest  Level FlightAware Approximate
Tue 12:29:00 AM -1.0262 -54.4055 334° Northwest  Level FlightAware Approximate
Tue 12:30:00 AM -0.9177 -54.4578 334° Northwest  Level FlightAware Approximate
Tue 12:31:00 AM -0.8092 -54.5101 334° Northwest  Level FlightAware Approximate
Tue 12:32:00 AM -0.7006 -54.5625 334° Northwest  Level FlightAware Approximate
Tue 12:33:00 AM -0.5921 -54.6148 334° Northwest  Level FlightAware Approximate
Tue 12:34:00 AM -0.4836 -54.6671 334° Northwest  Level FlightAware Approximate
Tue 12:35:00 AM -0.3751 -54.7194 334° Northwest  Level FlightAware Approximate
Tue 12:36:00 AM -0.2665 -54.7717 334° Northwest  Level FlightAware Approximate
Tue 12:37:00 AM -0.1580 -54.8240 334° Northwest  Level FlightAware Approximate
Tue 12:38:00 AM -0.0495 -54.8763 334° Northwest  Level FlightAware Approximate
Tue 12:39:00 AM 0.0591 -54.9286 334° Northwest  Level FlightAware Approximate
Tue 12:40:00 AM 0.1676 -54.9809 334° Northwest  Level FlightAware Approximate
Tue 12:41:00 AM 0.2761 -55.0333 334° Northwest  Level FlightAware Approximate
Tue 12:42:00 AM 0.3846 -55.0856 334° Northwest  Level FlightAware Approximate
Tue 12:43:00 AM 0.4932 -55.1379 334° Northwest  Level FlightAware Approximate
Tue 12:44:00 AM 0.6017 -55.1902 334° Northwest  Level FlightAware Approximate
Tue 12:45:00 AM 0.7102 -55.2425 334° Northwest  Level FlightAware Approximate
Tue 12:46:00 AM 0.8188 -55.2948 334° Northwest  Level FlightAware Approximate
Tue 12:47:00 AM 0.9273 -55.3472 334° Northwest  Level FlightAware Approximate
Tue 12:48:00 AM 1.0358 -55.3995 334° Northwest  Level FlightAware Approximate
Tue 12:49:00 AM 1.1444 -55.4518 334° Northwest  Level FlightAware Approximate
Tue 12:50:00 AM 1.2529 -55.5042 334° Northwest  Level FlightAware Approximate
Tue 12:51:00 AM 1.3614 -55.5565 334° Northwest  Level FlightAware Approximate
Tue 12:52:00 AM 1.4699 -55.6088 334° Northwest  Level FlightAware Approximate
Tue 12:53:00 AM 1.5785 -55.6612 334° Northwest  Level FlightAware Approximate
Tue 12:54:00 AM 1.6870 -55.7135 334° Northwest  Level FlightAware Approximate
Tue 12:55:00 AM 1.7955 -55.7659 334° Northwest  Level FlightAware Approximate
Tue 12:56:00 AM 1.9040 -55.8182 334° Northwest  Level FlightAware Approximate
Tue 12:57:00 AM 2.0125 -55.8706 334° Northwest  Level FlightAware Approximate
Tue 12:58:00 AM 2.1211 -55.9230 334° Northwest  Level FlightAware Approximate
Tue 12:59:00 AM 2.2296 -55.9754 334° Northwest  Level FlightAware Approximate
Tue 01:00:00 AM 2.3381 -56.0278 334° Northwest  Level FlightAware Approximate
Tue 01:01:00 AM 2.4466 -56.0802 334° Northwest  Level FlightAware Approximate
Tue 01:02:00 AM 2.5551 -56.1326 334° Northwest  Level FlightAware Approximate
Tue 01:03:00 AM 2.6636 -56.1850 334° Northwest  Level FlightAware Approximate
Tue 01:04:00 AM 2.7721 -56.2374 334° Northwest  Level FlightAware Approximate
Tue 01:05:00 AM 2.8806 -56.2899 334° Northwest  Level FlightAware Approximate
Tue 01:06:00 AM 2.9891 -56.3423 334° Northwest  Level FlightAware Approximate
Tue 01:07:00 AM 3.0976 -56.3948 334° Northwest  Level FlightAware Approximate
Tue 01:08:00 AM 3.2061 -56.4473 334° Northwest  Level FlightAware Approximate
Tue 01:09:00 AM 3.3146 -56.4997 334° Northwest  Level FlightAware Approximate
Tue 01:10:00 AM 3.4231 -56.5522 334° Northwest  Level FlightAware Approximate
Tue 01:11:00 AM 3.5316 -56.6047 334° Northwest  Level FlightAware Approximate
Tue 01:12:00 AM 3.6400 -56.6572 334° Northwest  Level FlightAware Approximate
Tue 01:13:00 AM 3.7485 -56.7098 334° Northwest  Level FlightAware Approximate
Tue 01:14:00 AM 3.8570 -56.7623 334° Northwest  Level FlightAware Approximate
Tue 01:15:00 AM 3.9655 -56.8149 334° Northwest  Level FlightAware Approximate
Tue 01:16:00 AM 4.0739 -56.8674 334° Northwest  Level FlightAware Approximate
Tue 01:17:00 AM 4.1824 -56.9200 334° Northwest  Level FlightAware Approximate
Tue 01:18:00 AM 4.2909 -56.9726 334° Northwest  Level FlightAware Approximate
Tue 01:19:00 AM 4.3993 -57.0252 334° Northwest  Level FlightAware Approximate
Tue 01:20:00 AM 4.5078 -57.0779 334° Northwest  Level FlightAware Approximate
Tue 01:21:00 AM 4.6163 -57.1305 334° Northwest  Level FlightAware Approximate
Tue 01:22:00 AM 4.7247 -57.1832 334° Northwest  Level FlightAware Approximate
Tue 01:23:00 AM 4.8331 -57.2358 334° Northwest  Level FlightAware Approximate
Tue 01:24:00 AM 4.9416 -57.2885 334° Northwest  Level FlightAware Approximate
Tue 01:25:00 AM 5.0500 -57.3412 334° Northwest  Level FlightAware Approximate
Tue 01:26:00 AM 5.1585 -57.3940 334° Northwest  Level FlightAware Approximate
Tue 01:27:00 AM 5.2669 -57.4467 334° Northwest  Level FlightAware Approximate
Tue 01:28:00 AM 5.3753 -57.4995 334° Northwest  Level FlightAware Approximate
Tue 01:29:00 AM 5.4837 -57.5523 334° Northwest  Level FlightAware Approximate
Tue 01:30:00 AM 5.5921 -57.6051 334° Northwest  Level FlightAware Approximate
Tue 01:31:00 AM 5.7005 -57.6579 334° Northwest  Level FlightAware Approximate
Tue 01:32:00 AM 5.8089 -57.7107 334° Northwest  Level FlightAware Approximate
Tue 01:33:00 AM 5.9173 -57.7636 334° Northwest  Level FlightAware Approximate
Tue 01:34:00 AM 6.0257 -57.8165 334° Northwest  Level FlightAware Approximate
Tue 01:35:00 AM 6.1341 -57.8694 334° Northwest  Level FlightAware Approximate
Tue 01:36:00 AM 6.2425 -57.9223 334° Northwest  Level FlightAware Approximate
Tue 01:37:00 AM 6.3509 -57.9752 334° Northwest  Level FlightAware Approximate
Tue 01:38:00 AM 6.4594 -58.0280 334° Northwest  Level FlightAware Approximate
Tue 01:39:00 AM 6.5678 -58.0808 334° Northwest  Level FlightAware Approximate
Tue 01:40:00 AM 6.6763 -58.1337 334° Northwest  Level FlightAware Approximate
Tue 01:41:00 AM 6.7847 -58.1866 334° Northwest  Level FlightAware Approximate
Tue 01:42:00 AM 6.8931 -58.2394 334° Northwest  Level FlightAware Approximate
Tue 01:43:00 AM 7.0016 -58.2924 334° Northwest  Level FlightAware Approximate
Tue 01:44:00 AM 7.1100 -58.3453 334° Northwest  Level FlightAware Approximate
Tue 01:45:00 AM 7.2184 -58.3983 334° Northwest  Level FlightAware Approximate
Tue 01:46:00 AM 7.3268 -58.4513 334° Northwest  Level FlightAware Approximate
Tue 01:47:00 AM 7.4352 -58.5043 334° Northwest  Level FlightAware Approximate
Tue 01:48:00 AM 7.5436 -58.5573 334° Northwest  Level FlightAware Approximate
Tue 01:49:00 AM 7.6520 -58.6104 334° Northwest  Level FlightAware Approximate
Tue 01:50:00 AM 7.7604 -58.6635 334° Northwest  Level FlightAware Approximate
Tue 01:51:00 AM 7.8688 -58.7166 334° Northwest  Level FlightAware Approximate
Tue 01:52:00 AM 7.9771 -58.7698 334° Northwest  Level FlightAware Approximate
Tue 01:53:00 AM 8.0855 -58.8229 334° Northwest  Level FlightAware Approximate
Tue 01:54:00 AM 8.1938 -58.8761 334° Northwest  Level FlightAware Approximate
Tue 01:55:00 AM 8.3022 -58.9294 334° Northwest  Level FlightAware Approximate
Tue 01:56:00 AM 8.4105 -58.9827 334° Northwest  Level FlightAware Approximate
Tue 01:57:00 AM 8.5189 -59.0359 334° Northwest  Level FlightAware Approximate
Tue 01:58:00 AM 8.6272 -59.0893 334° Northwest  Level FlightAware Approximate
Tue 01:59:00 AM 8.7354 -59.1429 333° Northwest  Level FlightAware Approximate
Tue 02:00:00 AM 8.8430 -59.1978 333° Northwest  Level FlightAware Approximate
Tue 02:01:00 AM 8.9506 -59.2527 333° Northwest  Level FlightAware Approximate
Tue 02:02:00 AM 9.0581 -59.3076 333° Northwest  Level FlightAware Approximate
Tue 02:03:00 AM 9.1657 -59.3626 333° Northwest  Level FlightAware Approximate
Tue 02:04:00 AM 9.2732 -59.4176 333° Northwest  Level FlightAware Approximate
Tue 02:05:00 AM 9.3808 -59.4727 333° Northwest  Level FlightAware Approximate
Tue 02:06:00 AM 9.4885 -59.5274 334° Northwest  Level FlightAware Approximate
Tue 02:07:00 AM 9.5969 -59.5808 334° Northwest  Level FlightAware Approximate
Tue 02:08:00 AM 9.7052 -59.6342 334° Northwest  Level FlightAware Approximate
Tue 02:09:00 AM 9.8136 -59.6877 334° Northwest  Level FlightAware Approximate
Tue 02:10:00 AM 9.9219 -59.7411 334° Northwest  Level FlightAware Approximate
Tue 02:11:00 AM 10.0302 -59.7947 334° Northwest  Level FlightAware Approximate
Tue 02:12:00 AM 10.1386 -59.8482 334° Northwest  Level FlightAware Approximate
Tue 02:13:00 AM 10.2469 -59.9018 334° Northwest  Level FlightAware Approximate
Tue 02:14:00 AM 10.3552 -59.9555 334° Northwest  Level FlightAware Approximate
Tue 02:15:00 AM 10.4635 -60.0091 334° Northwest  Level FlightAware Approximate
Tue 02:16:00 AM 10.5718 -60.0628 334° Northwest  Level FlightAware Approximate
Tue 02:17:00 AM 10.6801 -60.1166 334° Northwest  Level FlightAware Approximate
Tue 02:18:00 AM 10.7883 -60.1704 334° Northwest  Level FlightAware Approximate
Tue 02:19:00 AM 10.8966 -60.2242 334° Northwest  Level FlightAware Approximate
Tue 02:20:00 AM 11.0049 -60.2780 334° Northwest  Level FlightAware Approximate
Tue 02:21:00 AM 11.1131 -60.3319 334° Northwest  Level FlightAware Approximate
Tue 02:22:00 AM 11.2214 -60.3859 334° Northwest  Level FlightAware Approximate
Tue 02:23:00 AM 11.3296 -60.4399 334° Northwest  Level FlightAware Approximate
Tue 02:24:00 AM 11.4378 -60.4939 334° Northwest  Level FlightAware Approximate
Tue 02:25:00 AM 11.5460 -60.5480 334° Northwest  Level FlightAware Approximate
Tue 02:26:00 AM 11.6542 -60.6021 334° Northwest  Level FlightAware Approximate
Tue 02:27:00 AM 11.7624 -60.6563 333° Northwest  Level FlightAware Approximate
Tue 02:28:00 AM 11.8701 -60.7113 333° Northwest  Level FlightAware Approximate
Tue 02:29:00 AM 11.9779 -60.7663 333° Northwest  Level FlightAware Approximate
Tue 02:30:00 AM 12.0857 -60.8213 333° Northwest  Level FlightAware Approximate
Tue 02:31:00 AM 12.1935 -60.8764 333° Northwest  Level FlightAware Approximate
Tue 02:32:00 AM 12.3013 -60.9316 333° Northwest  Level FlightAware Approximate
Tue 02:33:00 AM 12.4090 -60.9868 333° Northwest  Level FlightAware Approximate
Tue 02:34:00 AM 12.5167 -61.0420 333° Northwest  Level FlightAware Approximate
Tue 02:35:00 AM 12.6244 -61.0973 333° Northwest  Level FlightAware Approximate
Tue 02:36:00 AM 12.7322 -61.1526 333° Northwest  Level FlightAware Approximate
Tue 02:37:00 AM 12.8399 -61.2080 333° Northwest  Level FlightAware Approximate
Tue 02:38:00 AM 12.9475 -61.2634 333° Northwest  Level FlightAware Approximate
Tue 02:39:00 AM 13.0614 -61.3180 335° Northwest  Level FlightAware Approximate
Tue 02:40:00 AM 13.1752 -61.3727 335° Northwest  Level FlightAware Approximate
Tue 02:41:00 AM 13.2887 -61.4280 333° Northwest  Level FlightAware Approximate
Tue 02:42:00 AM 13.4011 -61.4858 333° Northwest  Level FlightAware Approximate
Tue 02:43:00 AM 13.5134 -61.5437 333° Northwest  Level FlightAware Approximate
Tue 02:44:00 AM 13.6258 -61.6016 333° Northwest  Level FlightAware Approximate
Tue 02:45:00 AM 13.7381 -61.6596 333° Northwest  Level FlightAware Approximate
Tue 02:46:00 AM 13.8505 -61.7176 333° Northwest  Level FlightAware Approximate
Tue 02:47:00 AM 13.9628 -61.7757 333° Northwest  Level FlightAware Approximate
Tue 02:48:00 AM 14.0751 -61.8339 333° Northwest  Level FlightAware Approximate
Tue 02:49:00 AM 14.1874 -61.8921 333° Northwest  Level FlightAware Approximate
Tue 02:50:00 AM 14.2997 -61.9504 333° Northwest  Level FlightAware Approximate
Tue 02:51:00 AM 14.4119 -62.0087 333° Northwest  Level FlightAware Approximate
Tue 02:52:00 AM 14.5242 -62.0671 333° Northwest  Level FlightAware Approximate
Tue 02:53:00 AM 14.6364 -62.1255 333° Northwest  Level FlightAware Approximate
Tue 02:54:00 AM 14.7486 -62.1840 333° Northwest  Level FlightAware Approximate
Tue 02:55:00 AM 14.8608 -62.2425 333° Northwest  Level FlightAware Approximate
Tue 02:56:00 AM 14.9730 -62.3012 333° Northwest  Level FlightAware Approximate
Tue 02:57:00 AM 15.0852 -62.3599 333° Northwest  Level FlightAware Approximate
Tue 02:58:00 AM 15.1973 -62.4186 333° Northwest  Level FlightAware Approximate
Tue 02:59:00 AM 15.3095 -62.4774 333° Northwest  Level FlightAware Approximate
Tue 03:00:00 AM 15.4216 -62.5363 333° Northwest  Level FlightAware Approximate
Tue 03:01:00 AM 15.5337 -62.5952 333° Northwest  Level FlightAware Approximate
Tue 03:02:00 AM 15.6458 -62.6542 333° Northwest  Level FlightAware Approximate
Tue 03:03:00 AM 15.7579 -62.7133 333° Northwest  Level FlightAware Approximate
Tue 03:04:00 AM 15.8700 -62.7724 333° Northwest  Level FlightAware Approximate
Tue 03:05:00 AM 15.9820 -62.8316 333° Northwest  Level FlightAware Approximate
Tue 03:06:00 AM 16.0940 -62.8909 333° Northwest  Level FlightAware Approximate
Tue 03:07:00 AM 16.2061 -62.9502 333° Northwest  Level FlightAware Approximate
Tue 03:08:00 AM 16.3146 -63.0146 316° Northwest  Level FlightAware Approximate
Tue 03:09:00 AM 16.3978 -63.1126 310° West  Level FlightAware Approximate
Tue 03:10:00 AM 16.4791 -63.2126 310° West  Level FlightAware Approximate
Tue 03:10:14 AM 16.2167 -62.8667 312° West 580 667 38,000  Level San Juan Center
Tue 03:11:00 AM 16.5606 -63.3123 312° West  Level FlightAware Approximate
Tue 03:11:14 AM 16.3000 -62.9500 316° Northwest 470 541 38,000  Level San Juan Center
Tue 03:12:00 AM 16.6446 -63.4099 312° West  Level FlightAware Approximate
Tue 03:12:15 AM 16.3833 -63.0500 311° West 440 506 38,000  Level San Juan Center
Tue 03:13:00 AM 16.7285 -63.5076 312° West  Level FlightAware Approximate
Tue 03:13:15 AM 16.4667 -63.1500 311° West 440 506 38,000  Level San Juan Center
Tue 03:14:00 AM 16.8124 -63.6053 312° West  Level FlightAware Approximate
Tue 03:14:15 AM 16.5333 -63.2500 305° West 420 483 38,000  Level San Juan Center
Tue 03:15:00 AM 16.8963 -63.7031 312° West  Level FlightAware Approximate
Tue 03:15:16 AM 16.6167 -63.3500 311° West 440 506 38,000  Level San Juan Center
Tue 03:16:16 AM 16.7000 -63.4500 311° West 430 495 38,000  Level San Juan Center
Tue 03:18:00 AM 16.8417 -63.6228 311° West  Level FlightAware Approximate
Tue 03:20:17 AM 17.0333 -63.8167 311° West 440 506 38,000  Level San Juan Center
Tue 03:21:18 AM 17.1167 -63.9000 316° Northwest 440 506 38,000  Level San Juan Center
Tue 03:22:18 AM 17.2000 -64.0000 311° West 440 506 38,000  Level San Juan Center
Tue 03:23:18 AM 17.3000 -64.1000 316° Northwest 450 518 38,000  Level San Juan Center
Tue 03:24:19 AM 17.3833 -64.2000 311° West 450 518 38,000  Level San Juan Center
Tue 03:25:00 AM 17.4170 -64.3195 311° West  Level FlightAware Approximate
Tue 03:25:19 AM 17.4667 -64.2833 316° Northwest 450 518 38,000  Level San Juan Center
Tue 03:26:19 AM 17.5500 -64.3833 311° West 450 518 38,000  Level San Juan Center
Tue 03:27:20 AM 17.6333 -64.4667 316° Northwest 450 518 38,000  Level San Juan Center
Tue 03:28:20 AM 17.7333 -64.5667 316° Northwest 450 518 38,000  Level San Juan Center
Tue 03:29:20 AM 17.8167 -64.6667 311° West 450 518 38,000  Level San Juan Center
Tue 03:30:21 AM 17.9000 -64.7667 311° West 450 518 38,000  Level San Juan Center
Tue 03:31:21 AM 17.9833 -64.8667 311° West 450 518 38,000  Level San Juan Center
Tue 03:32:21 AM 18.0667 -64.9667 311° West 440 506 38,000  Level San Juan Center
Tue 03:33:22 AM 18.1500 -65.0500 316° Northwest 440 506 38,000  Level San Juan Center
Tue 03:34:22 AM 18.2333 -65.1500 311° West 460 529 38,000  Level San Juan Center
Tue 03:35:22 AM 18.3333 -65.2500 316° Northwest 450 518 38,000  Level San Juan Center
Tue 03:36:23 AM 18.4167 -65.3500 311° West 440 506 38,000  Level San Juan Center
Tue 03:37:23 AM 18.5000 -65.4333 317° Northwest 420 483 38,000  Level San Juan Center
Tue 03:38:23 AM 18.5833 -65.5333 311° West 440 506 38,000  Level San Juan Center
Tue 03:39:23 AM 18.6667 -65.6333 311° West 460 529 38,000  Level San Juan Center
Tue 03:40:24 AM 18.7333 -65.7167 310° West 430 495 38,000  Level San Juan Center
Tue 03:41:24 AM 18.8333 -65.8167 317° Northwest 450 518 38,000  Level San Juan Center
Tue 03:42:24 AM 18.9167 -65.9167 311° West 460 529 38,000  Level San Juan Center
Tue 03:43:24 AM 19.0000 -66.0000 317° Northwest 430 495 38,000  Level San Juan Center
Tue 03:44:25 AM 19.0833 -66.1000 311° West 440 506 38,000  Level San Juan Center
Tue 03:45:25 AM 19.1500 -66.2000 305° West 450 518 38,000  Level San Juan Center
Tue 03:46:25 AM 19.2333 -66.2833 317° Northwest 430 495 38,000  Level San Juan Center
Tue 03:47:26 AM 19.3167 -66.3833 311° West 440 506 38,000  Level San Juan Center
Tue 03:48:26 AM 19.4000 -66.4833 311° West 440 506 38,000  Level San Juan Center
Tue 03:49:26 AM 19.4833 -66.5667 317° Northwest 440 506 38,000  Level San Juan Center
Tue 03:50:27 AM 19.5667 -66.6667 311° West 440 506 38,000  Level San Juan Center
Tue 03:51:27 AM 19.6500 -66.7667 312° West 430 495 38,000  Level San Juan Center
Tue 03:52:27 AM 19.7333 -66.8500 317° Northwest 430 495 38,000  Level San Juan Center
Tue 03:53:27 AM 19.8167 -66.9500 312° West 430 495 38,000  Level San Juan Center
Tue 03:54:28 AM 19.9000 -67.0500 312° West 430 495 38,000  Level San Juan Center
Tue 03:55:28 AM 19.9833 -67.1500 312° West 440 506 38,000  Level San Juan Center
Tue 03:56:28 AM 20.0500 -67.2333 310° West 430 495 38,000  Level San Juan Center
Tue 03:57:29 AM 20.1333 -67.3333 312° West 430 495 38,000  Level San Juan Center
Tue 03:58:29 AM 20.2167 -67.4333 312° West 440 506 38,000  Level San Juan Center
Tue 03:59:29 AM 20.3000 -67.5333 312° West 430 495 38,000  Level San Juan Center
Tue 04:00:30 AM 20.3833 -67.6167 317° Northwest 440 506 38,000  Level San Juan Center
Tue 04:01:30 AM 20.4667 -67.7167 312° West 430 495 38,000  Level San Juan Center
Tue 04:02:30 AM 20.5500 -67.8167 312° West 430 495 38,000  Level San Juan Center
Tue 04:03:46 AM 20.6642 -67.9400 315° West 434 499 38,000  Level Miami Center
Tue 04:04:48 AM 20.7467 -68.0364 312° West 434 499 38,000  Level Miami Center
Tue 04:05:47 AM 20.8350 -68.1258 317° Northwest 434 499 38,000  Level Miami Center
Tue 04:06:46 AM 20.9272 -68.2131 319° Northwest 439 505 38,000  Level Miami Center
Tue 04:07:46 AM 21.0233 -68.2956 321° Northwest 439 505 38,000  Level Miami Center
Tue 04:08:46 AM 21.1178 -68.3806 320° Northwest 439 505 38,000  Level Miami Center
Tue 04:09:46 AM 21.2142 -68.4678 320° Northwest 439 505 38,000  Level Miami Center
Tue 04:10:47 AM 21.3061 -68.5511 320° Northwest 446 513 38,000  Level Miami Center
Tue 04:11:46 AM 21.3981 -68.6364 319° Northwest 441 507 38,000  Level Miami Center
Tue 04:12:46 AM 21.4942 -68.7194 321° Northwest 435 501 38,000  Level Miami Center
Tue 04:13:48 AM 21.5819 -68.8033 318° Northwest 435 501 38,000  Level Miami Center
Tue 04:14:46 AM 21.6739 -68.8869 320° Northwest 430 495 38,000  Level Miami Center
Tue 04:15:46 AM 21.7656 -68.9706 320° Northwest 430 495 38,000  Level Miami Center
Tue 04:16:46 AM 21.8594 -69.0544 320° Northwest 437 503 38,000  Level Miami Center
Tue 04:17:47 AM 21.9533 -69.1381 320° Northwest 437 503 38,000  Level Miami Center
Tue 04:18:46 AM 22.0408 -69.2203 319° Northwest 430 495 38,000  Level Miami Center
Tue 04:19:46 AM 22.1347 -69.3044 320° Northwest 435 501 38,000  Level Miami Center
Tue 04:20:46 AM 22.2286 -69.3908 320° Northwest 435 501 38,000  Level Miami Center
Tue 04:21:47 AM 22.3225 -69.4750 320° Northwest 435 501 38,000  Level Miami Center
Tue 04:22:46 AM 22.4161 -69.5594 320° Northwest 435 501 38,000  Level Miami Center
Tue 04:23:46 AM 22.5100 -69.6461 320° Northwest 435 501 38,000  Level Miami Center
Tue 04:24:46 AM 22.6017 -69.7308 320° Northwest 436 502 38,000  Level Miami Center
Tue 04:25:46 AM 22.6953 -69.8156 320° Northwest 436 502 38,000  Level Miami Center
Tue 04:26:46 AM 22.7889 -69.9028 319° Northwest 430 495 38,000  Level Miami Center
Tue 04:27:47 AM 22.8803 -69.9833 321° Northwest 430 495 38,000  Level Miami Center
Tue 04:28:46 AM 22.9697 -70.0689 319° Northwest 435 501 38,000  Level Miami Center
Tue 04:29:46 AM 23.0633 -70.1586 319° Northwest 436 502 38,000  Level Miami Center
Tue 04:30:48 AM 23.1525 -70.2397 320° Northwest 429 494 38,000  Level Miami Center
Tue 04:31:47 AM 23.2461 -70.3272 319° Northwest 434 499 38,000  Level Miami Center
Tue 04:32:47 AM 23.3372 -70.4108 320° Northwest 429 494 38,000  Level Miami Center
Tue 04:33:47 AM 23.4264 -70.4967 319° Northwest 429 494 38,000  Level Miami Center
Tue 04:34:47 AM 23.5200 -70.5825 320° Northwest 434 499 38,000  Level Miami Center
Tue 04:35:48 AM 23.6108 -70.6642 321° Northwest 434 499 38,000  Level Miami Center
Tue 04:36:47 AM 23.7025 -70.7572 317° Northwest 434 499 38,000  Level Miami Center
Tue 04:37:46 AM 23.7933 -70.8367 321° Northwest 429 494 38,000  Level Miami Center
Tue 04:38:47 AM 23.8844 -70.9231 319° Northwest 429 494 38,000  Level Miami Center
Tue 04:39:46 AM 23.9756 -71.0142 318° Northwest 437 503 38,000  Level Miami Center
Tue 04:40:46 AM 24.0667 -71.0964 321° Northwest 431 496 38,000  Level Miami Center
Tue 04:41:47 AM 24.1556 -71.1878 317° Northwest 431 496 38,000  Level Miami Center
Tue 04:42:48 AM 24.2464 -71.2678 321° Northwest 431 496 38,000  Level Miami Center
Tue 04:43:46 AM 24.3353 -71.3550 318° Northwest 431 496 38,000  Level Miami Center
Tue 04:44:46 AM 24.4258 -71.4375 320° Northwest 431 496 38,000  Level Miami Center
Tue 04:45:46 AM 24.5150 -71.5294 317° Northwest 427 491 38,000  Level Miami Center
Tue 04:46:46 AM 24.6036 -71.6169 318° Northwest 427 491 38,000  Level Miami Center
Tue 04:47:49 AM 24.6919 -71.6978 320° Northwest 422 486 38,000  Level Miami Center
Tue 04:48:46 AM 24.7808 -71.7878 317° Northwest 428 493 38,000  Level Miami Center
Tue 04:49:47 AM 24.8694 -71.8781 317° Northwest 428 493 38,000  Level Miami Center
Tue 04:50:47 AM 24.9578 -71.9592 320° Northwest 428 493 38,000  Level Miami Center
Tue 04:51:48 AM 25.0669 -72.0350 328° Northwest 439 505 38,000  Level Miami Center
Tue 04:53:00 AM 25.1905 -72.1138 330° Northwest  Level FlightAware Approximate
Tue 04:53:50 AM 25.0000 -72.0000 330° Northwest 435 501 38,000  Level New York Oceanic (ODAPS)
Tue 05:00:00 AM 26.0518 -72.6698 330° Northwest 435 501 38,000  Level FlightAware Transoceanic
Tue 05:01:00 AM 26.1568 -72.7374 330° Northwest 435 501 38,000  Level FlightAware Transoceanic
Tue 05:02:00 AM 26.2617 -72.8052 330° Northwest 435 501 38,000  Level FlightAware Transoceanic
Tue 05:03:00 AM 26.3667 -72.8730 330° Northwest 435 501 38,000  Level FlightAware Transoceanic
Tue 05:04:00 AM 26.4716 -72.9410 330° Northwest 435 501 38,000  Level FlightAware Transoceanic
Tue 05:05:00 AM 26.5765 -73.0092 330° Northwest 435 501 38,000  Level FlightAware Transoceanic
Tue 05:06:00 AM 26.6813 -73.0774 330° Northwest 435 501 38,000  Level FlightAware Transoceanic
Tue 05:07:00 AM 26.7861 -73.1458 330° Northwest 435 501 38,000  Level FlightAware Transoceanic
Tue 05:08:00 AM 26.8909 -73.2143 330° Northwest 435 501 38,000  Level FlightAware Transoceanic
Tue 05:09:00 AM 26.9957 -73.2829 330° Northwest 435 501 38,000  Level FlightAware Transoceanic
Tue 05:10:00 AM 27.1004 -73.3517 330° Northwest 435 501 38,000  Level FlightAware Transoceanic
Tue 05:11:00 AM 27.2051 -73.4206 330° Northwest 435 501 38,000  Level FlightAware Transoceanic
Tue 05:12:00 AM 27.3097 -73.4896 330° Northwest 435 501 38,000  Level FlightAware Transoceanic
Tue 05:13:00 AM 27.4143 -73.5587 330° Northwest 435 501 38,000  Level FlightAware Transoceanic
Tue 05:14:00 AM 27.5189 -73.6280 330° Northwest 435 501 38,000  Level FlightAware Transoceanic
Tue 05:15:00 AM 27.6235 -73.6974 330° Northwest 435 501 38,000  Level FlightAware Transoceanic
Tue 05:16:00 AM 27.7280 -73.7670 329° Northwest 435 501 38,000  Level FlightAware Transoceanic
Tue 05:17:00 AM 27.8325 -73.8366 329° Northwest 435 501 38,000  Level FlightAware Transoceanic
Tue 05:18:00 AM 27.9369 -73.9064 329° Northwest 435 501 38,000  Level FlightAware Transoceanic
Tue 05:19:00 AM 28.0413 -73.9764 329° Northwest 435 501 38,000  Level FlightAware Transoceanic
Tue 05:20:00 AM 28.1457 -74.0464 329° Northwest 435 501 38,000  Level FlightAware Transoceanic
Tue 05:21:00 AM 28.2500 -74.1167 322° Northwest 435 501 38,000  Level FlightAware Transoceanic
Tue 05:22:00 AM 28.3420 -74.1990 322° Northwest 435 501 38,000  Level FlightAware Transoceanic
Tue 05:22:54 AM 28.2500 -74.1167 322° Northwest 409 471 38,000  Level New York Oceanic (ODAPS)
Tue 05:23:00 AM 28.4340 -74.2814 322° Northwest 435 501 38,000  Level FlightAware Transoceanic
Tue 05:24:00 AM 28.5260 -74.3641 322° Northwest 435 501 38,000  Level FlightAware Transoceanic
Tue 05:25:00 AM 28.6179 -74.4468 322° Northwest 435 501 38,000  Level FlightAware Transoceanic
Tue 05:26:00 AM 28.7097 -74.5297 322° Northwest 435 501 38,000  Level FlightAware Transoceanic
Tue 05:27:00 AM 28.8015 -74.6127 322° Northwest 435 501 38,000  Level FlightAware Transoceanic
Tue 05:28:00 AM 28.8933 -74.6959 322° Northwest 435 501 38,000  Level FlightAware Transoceanic
Tue 05:29:00 AM 28.9640 -74.7602 321° Northwest 409 471 38,000  Level FlightAware Transoceanic
Tue 05:30:00 AM 29.0530 -74.8412 321° Northwest 409 471 38,000  Level FlightAware Transoceanic
Tue 05:31:00 AM 29.1420 -74.9224 321° Northwest 409 471 38,000  Level FlightAware Transoceanic
Tue 05:32:00 AM 29.2309 -75.0038 321° Northwest 409 471 38,000  Level FlightAware Transoceanic
Tue 05:33:00 AM 29.3198 -75.0853 321° Northwest 409 471 38,000  Level FlightAware Transoceanic
Tue 05:34:00 AM 29.4087 -75.1669 321° Northwest 409 471 38,000  Level FlightAware Transoceanic
Tue 05:35:00 AM 29.4975 -75.2487 321° Northwest 409 471 38,000  Level FlightAware Transoceanic
Tue 05:36:00 AM 29.5862 -75.3306 321° Northwest 409 471 38,000  Level FlightAware Transoceanic
Tue 05:37:00 AM 29.6749 -75.4126 321° Northwest 409 471 38,000  Level FlightAware Transoceanic
Tue 05:38:00 AM 29.7635 -75.4948 321° Northwest 409 471 38,000  Level FlightAware Transoceanic
Tue 05:39:00 AM 29.8521 -75.5772 321° Northwest 409 471 38,000  Level FlightAware Transoceanic
Tue 05:40:00 AM 29.9406 -75.6597 321° Northwest 409 471 38,000  Level FlightAware Transoceanic
Tue 05:41:00 AM 30.0291 -75.7423 321° Northwest 409 471 38,000  Level FlightAware Transoceanic
Tue 05:42:00 AM 30.1176 -75.8251 321° Northwest 409 471 38,000  Level FlightAware Transoceanic
Tue 05:43:00 AM 30.2059 -75.9080 321° Northwest 409 471 38,000  Level FlightAware Transoceanic
Tue 05:44:00 AM 30.2943 -75.9911 321° Northwest 409 471 38,000  Level FlightAware Transoceanic
Tue 05:45:00 AM 30.3825 -76.0743 321° Northwest 409 471 38,000  Level FlightAware Transoceanic
Tue 05:46:00 AM 30.4708 -76.1577 321° Northwest 409 471 38,000  Level FlightAware Transoceanic
Tue 05:47:00 AM 30.5589 -76.2413 321° Northwest 409 471 38,000  Level FlightAware Transoceanic
Tue 05:48:00 AM 30.6470 -76.3250 321° Northwest 409 471 38,000  Level FlightAware Transoceanic
Tue 05:49:00 AM 30.7351 -76.4088 321° Northwest 409 471 38,000  Level FlightAware Transoceanic
Tue 05:50:00 AM 30.8231 -76.4928 321° Northwest 409 471 38,000  Level FlightAware Transoceanic
Tue 05:51:00 AM 30.9111 -76.5769 321° Northwest 409 471 38,000  Level FlightAware Transoceanic
Tue 05:51:50 AM 30.9611 -76.6142 321° Northwest 457 526 38,000  Level Jacksonville Center
Tue 05:52:00 AM 30.9990 -76.6612 321° Northwest 409 471 38,000  Level FlightAware Transoceanic
Tue 05:52:50 AM 31.0589 -76.6925 326° Northwest 444 511 38,000  Level Jacksonville Center
Tue 05:53:00 AM 31.0868 -76.7457 320° Northwest 409 471 38,000  Level FlightAware Transoceanic
Tue 05:53:50 AM 31.1453 -76.7958 314° West 433 498 38,000  Level Jacksonville Center
Tue 05:54:00 AM 31.1746 -76.8303 320° Northwest 409 471 38,000  Level FlightAware Transoceanic
Tue 05:54:50 AM 31.2369 -76.8797 322° Northwest 428 493 38,000  Level Jacksonville Center
Tue 05:55:00 AM 31.2623 -76.9151 320° Northwest 409 471 38,000  Level FlightAware Transoceanic
Tue 05:55:50 AM 31.3269 -76.9714 319° Northwest 423 487 38,000  Level Jacksonville Center
Tue 05:56:00 AM 31.3500 -77.0000 321° Northwest 409 471 38,000  Level FlightAware Transoceanic
Tue 05:56:50 AM 31.4164 -77.0556 321° Northwest 423 487 38,000  Level Jacksonville Center
Tue 05:57:00 AM 31.4403 -77.0843 321° Northwest 409 471 38,000  Level FlightAware Transoceanic
Tue 05:57:50 AM 31.5097 -77.1375 323° Northwest 423 487 38,000  Level Jacksonville Center
Tue 05:58:50 AM 31.5975 -77.2294 318° Northwest 423 487 38,000  Level Jacksonville Center
Tue 05:59:50 AM 31.6564 -77.3381 303° West 405 466 38,000  Level Jacksonville Center
Tue 06:00:50 AM 31.7114 -77.4497 300° West 405 466 38,000  Level Jacksonville Center
Tue 06:01:50 AM 31.7622 -77.5664 297° West 400 460 38,000  Level Jacksonville Center
Tue 06:02:50 AM 31.8192 -77.6781 301° West 400 460 38,000  Level Jacksonville Center
Tue 06:03:50 AM 31.8739 -77.7947 299° West 400 460 38,000  Level Jacksonville Center
Tue 06:04:50 AM 31.9286 -77.9067 300° West 400 460 38,000  Level Jacksonville Center
Tue 06:05:50 AM 31.9789 -78.0214 297° West 405 466 38,000  Level Jacksonville Center
Tue 06:06:50 AM 32.0314 -78.1364 298° West 399 459 38,000 -450 Level Jacksonville Center
Tue 06:07:50 AM 32.0858 -78.2586 298° West 408 470 37,100 -1,200 Descending Jacksonville Center
Tue 06:08:50 AM 32.1381 -78.3761 298° West 413 475 35,600 -1,450 Descending Jacksonville Center
Tue 06:09:50 AM 32.1925 -78.4961 298° West 413 475 34,200 -1,350 Descending Jacksonville Center
Tue 06:10:50 AM 32.2528 -78.6136 301° West 418 481 32,900 -1,450 Descending Jacksonville Center
Tue 06:11:50 AM 32.3069 -78.7339 298° West 418 481 31,300 -950 Descending Jacksonville Center
Tue 06:12:50 AM 32.3631 -78.8494 300° West 418 481 31,000 -150 Descending Jacksonville Center
Tue 06:13:50 AM 32.4147 -78.9678 297° West 413 475 31,000  Level Jacksonville Center
Tue 06:14:50 AM 32.4706 -79.0908 298° West 413 475 31,000  Level Jacksonville Center
Tue 06:15:50 AM 32.5242 -79.2117 298° West 413 475 31,000  Level Jacksonville Center
Tue 06:16:50 AM 32.5778 -79.3353 297° West 418 481 31,000  Level Jacksonville Center
Tue 06:17:50 AM 32.6314 -79.4564 298° West 418 481 31,000 -50 Level Jacksonville Center
Tue 06:18:50 AM 32.6908 -79.5775 300° West 423 487 30,900 -550 Descending Jacksonville Center
Tue 06:19:50 AM 32.8014 -79.6503 331° Northwest 423 487 29,900 -850 Descending Jacksonville Center
Tue 06:20:50 AM 32.9336 -79.6750 351° North 442 509 29,200 -750 Descending Jacksonville Center
Tue 06:21:50 AM 33.0633 -79.6978 352° North 454 522 28,400 -750 Descending Jacksonville Center
Tue 06:22:50 AM 33.1956 -79.7203 352° North 460 529 27,700 -750 Descending Jacksonville Center
Tue 06:23:50 AM 33.3233 -79.7456 351° North 466 536 26,900 -800 Descending Jacksonville Center
Tue 06:24:50 AM 33.4472 -79.7736 349° North 466 536 26,100 -950 Descending Jacksonville Center
Tue 06:25:50 AM 33.5711 -79.7992 350° North 455 524 25,000 -1,300 Descending Jacksonville Center
Tue 06:26:50 AM 33.6925 -79.8197 352° North 445 512 23,500 -1,500 Descending Jacksonville Center
Tue 06:27:50 AM 33.8039 -79.8458 349° North 437 503 22,000 -1,300 Descending Jacksonville Center
Tue 06:28:50 AM 33.9053 -79.9000 336° Northwest 408 470 20,900 -1,050 Descending Jacksonville Center
Tue 06:29:50 AM 33.9983 -79.9544 334° Northwest 383 441 19,900 -950 Descending Jacksonville Center
Tue 06:30:50 AM 34.0850 -80.0042 335° Northwest 360 414 19,000 -1,050 Descending Jacksonville Center
Tue 06:31:50 AM 34.1758 -80.0514 337° Northwest 349 402 17,800 -1,100 Descending Jacksonville Center
Tue 06:32:50 AM 34.2603 -80.0964 336° Northwest 344 396 16,800 -1,050 Descending Jacksonville Center
Tue 06:33:50 AM 34.3450 -80.1489 333° Northwest 339 390 15,700 -1,050 Descending Jacksonville Center
Tue 06:34:50 AM 34.4272 -80.1917 337° Northwest 339 390 14,700 -1,000 Descending Jacksonville Center
Tue 06:35:50 AM 34.5094 -80.2369 336° Northwest 329 379 13,700 -1,024 Descending Jacksonville Center
Tue 06:37:34 AM 34.6497 -80.3144 336° Northwest 313 360 11,900 -945 Descending Atlanta Center
Tue 06:38:35 AM 34.7203 -80.3669 329° Northwest 303 349 11,100 -393 Descending Atlanta Center
Tue 06:39:36 AM 34.7828 -80.4375 317° Northwest 301 346 11,100  Level Atlanta Center
Tue 06:40:37 AM 34.8392 -80.5111 313° West 299 344 11,100  Level Atlanta Center
Tue 06:41:38 AM 34.8956 -80.5844 313° West 295 339 11,100 -694 Level Atlanta Center
Tue 06:42:38 AM 34.9581 -80.6581 316° Northwest 293 337 9,700 -992 Descending Atlanta Center
Tue 06:43:39 AM 35.0103 -80.7294 312° West 282 325 9,100 -295 Descending Atlanta Center
Tue 06:44:40 AM 35.0642 -80.7933 316° Northwest 272 313 9,100  Level Atlanta Center
Tue 06:45:41 AM 35.1139 -80.8650 310° West 274 315 9,100  Level Atlanta Center
Tue 06:46:41 AM 35.1533 -80.9422 302° West 266 306 9,100  Level Atlanta Center
Tue 06:47:42 AM 35.1928 -81.0144 304° West 250 288 9,100 -492 Level Atlanta Center
Tue 06:48:43 AM 35.2522 -81.0581 329° Northwest 256 295 8,100 -1,134 Descending Atlanta Center
Tue 06:49:49 AM 35.3297 -81.0653 356° North 233 268 6,700 -1,370 Descending Atlanta Center
Tue 06:50:50 AM 35.3833 -81.0456 17° North 213 245 5,200 -1,377 Descending Atlanta Center
Tue 06:51:51 AM 35.3675 -80.9875 108° East 193 222 3,900 -1,279 Descending Atlanta Center

Login

Don't have an account? Register now (free) for customized features, flight alerts, and more!